Time;durP1;ratioP1;P1;durP2;ratioP2;P2;SDS_P1;SDS_P2;PMS_P1;PMS_P2;Temp;Humidity;BMP_temperature;BMP_pressure;BME280_temperature;BME280_humidity;BME280_pressure;Samples;Min_cycle;Max_cycle;Signal;HPM_P1;HPM_P2
2023/10/31 00:00:12;;;;;;;0.60;0.60;;;16.70;99.90;;;16.79;62.45;99273.75;4875974;28;98179;-45
2023/10/31 00:02:38;;;;;;;0.60;0.50;;;16.70;99.90;;;16.71;61.69;99286.00;4881863;28;97084;-45
2023/10/31 00:05:05;;;;;;;0.50;0.30;;;16.60;99.90;;;16.62;60.32;99288.38;4868431;28;98936;-43
2023/10/31 00:07:30;;;;;;;0.60;0.50;;;16.60;99.90;;;16.57;63.11;99295.91;4872487;28;97751;-43
2023/10/31 00:09:56;;;;;;;0.73;0.60;;;16.50;99.90;;;16.46;62.19;99297.75;4867022;28;98452;-45
2023/10/31 00:12:22;;;;;;;1.33;0.90;;;16.40;99.90;;;16.49;61.03;99310.81;4866333;28;108612;-44
2023/10/31 00:14:48;;;;;;;1.07;0.60;;;16.40;99.90;;;16.41;61.62;99322.09;4867091;28;97358;-43
2023/10/31 00:17:14;;;;;;;0.97;0.53;;;16.40;99.90;;;16.28;63.47;99322.22;4867223;28;97974;-47
2023/10/31 00:19:39;;;;;;;0.90;0.80;;;16.20;99.90;;;16.16;61.90;99322.34;4862726;28;99025;-43
2023/10/31 00:22:06;;;;;;;0.97;0.80;;;16.00;99.90;;;15.84;61.90;99330.22;4855797;28;101786;-44
2023/10/31 00:24:49;;;;;;;0.97;0.80;;;15.80;99.90;;;15.89;62.64;99331.53;4820174;28;99064;-44
2023/10/31 00:27:15;;;;;;;0.63;0.57;;;15.70;99.90;;;15.60;63.47;99323.19;4842827;28;97332;-44
2023/10/31 00:29:40;;;;;;;0.87;0.80;;;15.60;99.90;;;15.77;62.98;99328.06;4854413;28;98092;-44
2023/10/31 00:32:06;;;;;;;0.83;0.73;;;15.70;99.90;;;15.87;65.21;99320.19;4864766;28;97315;-43
2023/10/31 00:34:32;;;;;;;0.70;0.67;;;15.70;99.90;;;15.96;64.10;99331.91;4864178;28;117595;-53
2023/10/31 00:36:58;;;;;;;0.67;0.60;;;15.90;99.90;;;16.03;63.88;99333.13;4860528;28;107510;-44
2023/10/31 00:39:24;;;;;;;0.73;0.50;;;16.00;99.90;;;16.04;62.91;99340.13;4868684;28;98764;-45
2023/10/31 00:41:49;;;;;;;0.87;0.80;;;16.00;99.90;;;16.09;62.86;99337.97;4865284;28;97662;-49
2023/10/31 00:44:15;;;;;;;0.67;0.67;;;16.00;99.90;;;16.05;61.15;99334.69;4864567;28;97668;-46
2023/10/31 00:46:41;;;;;;;0.70;0.60;;;16.00;99.90;;;16.09;63.12;99337.13;4867897;28;97139;-44
2023/10/31 00:49:07;;;;;;;1.00;0.80;;;16.00;99.90;;;16.19;62.88;99338.06;4868337;28;98318;-45
2023/10/31 00:51:33;;;;;;;1.77;0.50;;;16.10;99.90;;;16.35;64.23;99344.72;4866037;28;98235;-43
2023/10/31 00:53:59;;;;;;;0.70;0.67;;;16.30;99.90;;;16.45;61.72;99354.63;4864283;28;97931;-46
2023/10/31 00:56:24;;;;;;;2.23;1.07;;;16.40;99.90;;;16.46;62.96;99357.16;4865102;28;97417;-43
2023/10/31 00:58:50;;;;;;;1.20;0.63;;;16.50;99.90;;;16.46;61.53;99357.16;4866737;28;97362;-45
2023/10/31 01:01:16;;;;;;;1.43;0.90;;;16.50;99.90;;;16.48;62.18;99352.53;4865160;28;98004;-45
2023/10/31 01:03:42;;;;;;;1.00;0.90;;;16.40;99.90;;;16.48;62.38;99354.38;4858596;28;97487;-49
2023/10/31 01:06:08;;;;;;;0.93;0.80;;;16.40;99.90;;;16.51;60.79;99360.31;4850138;28;97486;-44
2023/10/31 01:08:34;;;;;;;1.90;1.10;;;16.40;99.90;;;16.46;60.79;99350.97;4859860;28;97711;-45
2023/10/31 01:11:00;;;;;;;1.23;1.13;;;16.40;99.90;;;16.40;62.44;99362.97;4868611;28;97474;-43
2023/10/31 01:13:26;;;;;;;1.33;0.83;;;16.30;99.90;;;16.40;62.88;99362.13;4868743;28;98107;-45
2023/10/31 01:15:52;;;;;;;1.07;0.77;;;16.30;99.90;;;16.23;62.49;99366.97;4868231;28;97389;-43
2023/10/31 01:18:19;;;;;;;1.43;0.60;;;16.10;99.90;;;16.22;59.49;99364.44;4867805;28;109921;-42
2023/10/31 01:20:44;;;;;;;0.97;0.33;;;16.20;99.90;;;16.32;61.72;99365.38;4868857;28;98461;-43
2023/10/31 01:23:10;;;;;;;0.80;0.50;;;16.20;99.90;;;16.35;60.29;99379.31;4871275;28;97189;-45
2023/10/31 01:25:36;;;;;;;1.30;0.50;;;16.30;99.90;;;16.39;61.75;99376.41;4868088;28;97307;-43
2023/10/31 01:28:02;;;;;;;1.13;0.30;;;16.30;99.90;;;16.30;61.39;99385.94;4863679;28;100743;-47
2023/10/31 01:30:28;;;;;;;0.50;0.40;;;16.20;99.90;;;16.36;59.72;99382.81;4863463;28;101766;-43
2023/10/31 01:32:54;;;;;;;1.30;0.50;;;16.30;99.90;;;16.40;61.04;99388.75;4865718;28;98270;-45
2023/10/31 01:35:20;;;;;;;0.73;0.50;;;16.30;99.90;;;16.47;61.42;99390.78;4868212;28;104777;-44
2023/10/31 01:37:45;;;;;;;0.57;0.47;;;16.40;99.90;;;16.58;62.15;99396.09;4871202;28;98400;-46
2023/10/31 01:40:14;;;;;;;3.30;0.80;;;16.50;99.90;;;16.66;61.97;99395.50;4873658;28;102661;-47
2023/10/31 01:42:40;;;;;;;0.93;0.60;;;16.60;99.90;;;16.73;62.04;99390.53;4885341;28;100516;-43
2023/10/31 01:45:07;;;;;;;1.17;0.67;;;16.70;99.90;;;16.75;58.78;99400.09;4886139;28;98697;-45
2023/10/31 01:47:33;;;;;;;3.97;0.57;;;16.70;99.90;;;16.82;62.08;99398.63;4885440;28;99395;-43
2023/10/31 01:49:59;;;;;;;0.63;0.50;;;16.80;99.90;;;16.83;60.49;99408.31;4883999;28;123950;-45
2023/10/31 01:52:26;;;;;;;1.57;0.57;;;16.80;99.90;;;16.84;61.75;99404.69;4881868;28;97761;-45
2023/10/31 01:54:53;;;;;;;1.90;0.43;;;16.70;99.90;;;16.80;58.41;99403.25;4867444;28;97065;-43
2023/10/31 01:57:21;;;;;;;2.53;0.53;;;16.70;99.90;;;16.81;58.33;99404.94;4883352;28;97609;-43
2023/10/31 01:59:47;;;;;;;2.47;0.57;;;16.70;99.90;;;16.93;61.85;99409.25;4887695;28;96843;-45
2023/10/31 02:02:14;;;;;;;0.50;0.40;;;16.80;99.90;;;16.93;61.87;99403.94;4892176;28;106485;-56
2023/10/31 02:04:40;;;;;;;1.00;0.50;;;16.80;99.90;;;16.96;58.60;99405.50;4885972;28;96572;-44
2023/10/31 02:07:05;;;;;;;0.73;0.60;;;16.90;99.90;;;16.94;58.54;99405.63;4886140;28;97672;-44
2023/10/31 02:09:32;;;;;;;1.40;0.77;;;16.80;99.90;;;17.06;61.86;99402.91;4885593;28;97849;-45
2023/10/31 02:11:58;;;;;;;0.83;0.60;;;17.00;99.90;;;17.05;58.85;99407.41;4886456;28;99932;-44
2023/10/31 02:14:24;;;;;;;1.27;0.60;;;17.00;99.90;;;16.88;58.29;99410.59;4886016;28;97054;-44
2023/10/31 02:16:51;;;;;;;2.27;0.90;;;16.70;99.90;;;16.79;59.84;99401.56;4883883;28;97480;-42
2023/10/31 02:19:20;;;;;;;1.00;0.73;;;16.60;99.90;;;16.87;61.80;99406.25;4887599;28;97340;-43
2023/10/31 02:21:46;;;;;;;0.80;0.60;;;16.60;99.90;;;16.95;61.64;99407.31;4884532;28;97718;-43
2023/10/31 02:24:12;;;;;;;3.93;0.70;;;16.80;99.90;;;17.00;61.62;99408.75;4887362;28;97227;-43
2023/10/31 02:26:38;;;;;;;0.90;0.50;;;16.80;99.90;;;16.90;56.68;99398.84;4887559;28;97380;-43
2023/10/31 02:29:04;;;;;;;0.90;0.53;;;16.80;99.90;;;16.85;59.45;99387.72;4885970;28;97308;-43
2023/10/31 02:31:30;;;;;;;4.73;0.73;;;16.70;99.90;;;16.83;60.29;99387.00;4886592;28;98559;-43
2023/10/31 02:33:56;;;;;;;1.13;0.60;;;16.60;99.90;;;16.77;60.34;99395.47;4885630;28;97065;-48
2023/10/31 02:36:23;;;;;;;1.50;0.80;;;16.60;99.90;;;16.81;58.08;99399.59;4878485;28;97113;-44
2023/10/31 02:38:49;;;;;;;1.47;0.60;;;16.60;99.90;;;16.75;57.38;99400.09;4883770;28;97222;-47
2023/10/31 02:41:15;;;;;;;1.10;0.60;;;16.60;99.90;;;16.75;62.22;99408.06;4885307;28;107285;-54
2023/10/31 02:43:42;;;;;;;2.87;0.70;;;16.50;99.90;;;16.75;59.56;99405.41;4893642;28;97365;-44
2023/10/31 02:46:08;;;;;;;1.13;0.73;;;16.60;99.90;;;16.78;62.53;99405.19;4889584;28;97022;-44
2023/10/31 02:48:39;;;;;;;2.83;0.73;;;16.50;99.90;;;16.81;61.48;99410.25;4886807;28;97152;-44
2023/10/31 02:51:08;;;;;;;1.37;0.60;;;16.60;99.90;;;16.81;59.85;99410.25;4889558;28;97689;-43
2023/10/31 02:53:36;;;;;;;0.93;0.43;;;16.60;99.90;;;16.81;59.26;99410.25;4891403;28;101811;-45
2023/10/31 02:56:02;;;;;;;0.93;0.50;;;16.60;99.90;;;16.82;60.66;99417.28;4890081;28;97177;-44
2023/10/31 02:58:28;;;;;;;2.63;0.87;;;16.60;99.90;;;16.83;59.24;99413.63;4886884;28;106722;-43
2023/10/31 03:00:53;;;;;;;0.70;0.50;;;16.60;99.90;;;16.93;62.14;99409.25;4882675;28;101967;-43
2023/10/31 03:03:19;;;;;;;1.90;0.50;;;16.80;99.90;;;16.91;61.10;99416.50;4886709;28;97191;-43
2023/10/31 03:05:45;;;;;;;2.27;0.50;;;16.80;99.90;;;16.71;58.81;99416.44;4889607;28;97480;-45
2023/10/31 03:08:12;;;;;;;2.50;0.70;;;16.60;99.90;;;16.49;58.84;99425.25;4893389;28;109780;-45
2023/10/31 03:10:39;;;;;;;0.97;0.67;;;16.20;99.90;;;16.53;59.42;99426.72;4888358;28;97841;-43
2023/10/31 03:13:05;;;;;;;3.70;0.80;;;16.20;99.90;;;16.66;62.86;99422.13;4891662;28;97176;-43
2023/10/31 03:15:31;;;;;;;1.80;0.70;;;16.40;99.90;;;16.75;62.30;99432.03;4889408;28;97198;-43
2023/10/31 03:17:56;;;;;;;1.30;0.67;;;16.60;99.90;;;16.85;62.35;99434.81;4887014;28;97818;-45
2023/10/31 03:20:22;;;;;;;2.63;0.60;;;16.70;99.90;;;16.90;60.78;99438.78;4887813;28;97315;-44
2023/10/31 03:22:48;;;;;;;1.10;0.60;;;16.80;99.90;;;16.92;60.74;99428.88;4886937;28;97204;-47
2023/10/31 03:25:14;;;;;;;0.50;0.40;;;16.90;99.90;;;16.78;61.50;99428.28;4890356;28;97264;-46
2023/10/31 03:27:39;;;;;;;1.00;0.60;;;16.60;99.90;;;16.63;57.45;99433.81;4886400;28;105105;-43
2023/10/31 03:30:06;;;;;;;3.10;1.03;;;16.50;99.90;;;16.55;58.49;99430.09;4887162;28;101612;-44
2023/10/31 03:32:32;;;;;;;2.20;0.80;;;16.30;99.90;;;16.46;58.44;99425.50;4877948;28;97598;-44
2023/10/31 03:34:58;;;;;;;2.43;1.00;;;16.10;99.90;;;16.40;59.78;99433.97;4889507;28;97557;-44
2023/10/31 03:37:23;;;;;;;1.03;0.73;;;16.00;99.90;;;16.39;58.79;99434.94;4892983;28;109295;-43
2023/10/31 03:39:49;;;;;;;1.10;0.80;;;16.00;99.90;;;16.35;61.35;99440.53;4893044;28;97135;-44
2023/10/31 03:42:16;;;;;;;0.37;0.33;;;16.00;99.90;;;16.41;63.18;99438.34;4887888;28;97345;-47
2023/10/31 03:44:42;;;;;;;3.27;0.77;;;16.10;99.90;;;16.36;58.16;99439.56;4890028;28;97714;-43
2023/10/31 03:47:08;;;;;;;0.70;0.40;;;16.10;99.90;;;16.29;60.61;99446.31;4888542;28;97081;-43
2023/10/31 03:49:33;;;;;;;2.40;0.60;;;16.00;99.90;;;16.29;60.15;99440.97;4894179;28;97481;-51
2023/10/31 03:51:59;;;;;;;5.00;0.87;;;16.00;99.90;;;16.23;60.87;99454.78;4890581;28;97149;-43
2023/10/31 03:54:25;;;;;;;2.40;0.60;;;15.90;99.90;;;16.13;61.11;99455.59;4887711;28;97456;-43
2023/10/31 03:56:50;;;;;;;2.03;0.53;;;15.80;99.90;;;16.24;59.68;99460.94;4893513;28;104003;-43
2023/10/31 03:59:16;;;;;;;2.03;0.60;;;15.90;99.90;;;16.39;62.98;99457.09;4892376;28;105251;-43
2023/10/31 04:01:42;;;;;;;1.37;0.70;;;16.10;99.90;;;16.33;59.28;99461.06;4892975;28;97584;-44
2023/10/31 04:04:08;;;;;;;0.80;0.50;;;16.10;99.90;;;16.27;59.25;99468.69;4888543;28;98481;-44
2023/10/31 04:06:34;;;;;;;0.83;0.50;;;15.90;99.90;;;16.29;61.13;99475.56;4886008;28;100127;-45
2023/10/31 04:09:00;;;;;;;0.73;0.60;;;15.90;99.90;;;16.35;61.85;99474.25;4888477;28;97064;-44
2023/10/31 04:11:25;;;;;;;1.73;0.70;;;16.00;99.90;;;16.25;59.61;99473.28;4884758;28;96829;-43
2023/10/31 04:13:51;;;;;;;1.43;0.53;;;15.90;99.90;;;16.31;62.76;99468.31;4889626;28;97627;-47
2023/10/31 04:16:17;;;;;;;2.17;0.93;;;15.90;99.90;;;16.30;59.50;99474.59;4890028;28;99992;-46
2023/10/31 04:18:43;;;;;;;1.23;0.40;;;16.00;99.90;;;16.36;62.96;99474.16;4892345;28;97565;-44
2023/10/31 04:21:09;;;;;;;1.60;0.50;;;16.00;99.90;;;16.44;62.34;99480.66;4886642;28;97983;-47
2023/10/31 04:23:34;;;;;;;1.60;0.50;;;16.10;99.90;;;16.45;59.55;99479.69;4885623;28;97085;-48
2023/10/31 04:26:01;;;;;;;1.47;0.30;;;16.20;99.90;;;16.43;61.39;99486.97;4892477;28;99076;-43
2023/10/31 04:28:27;;;;;;;0.50;0.37;;;16.10;99.90;;;16.36;61.17;99489.25;4887673;28;97537;-44
2023/10/31 04:30:52;;;;;;;0.57;0.50;;;16.00;99.90;;;16.31;61.09;99492.25;4896678;28;96877;-46
2023/10/31 04:33:18;;;;;;;0.40;0.40;;;16.00;99.90;;;16.14;59.50;99489.22;4885107;28;104403;-46
2023/10/31 04:35:44;;;;;;;0.23;0.20;;;15.80;99.90;;;16.24;62.86;99493.72;4894213;28;97700;-47
2023/10/31 04:38:10;;;;;;;0.70;0.40;;;15.80;99.90;;;16.21;59.35;99499.28;4892094;28;97293;-45
2023/10/31 04:40:35;;;;;;;1.23;0.50;;;15.90;99.90;;;16.21;62.29;99495.78;4903913;28;96739;-42
2023/10/31 04:43:02;;;;;;;2.83;0.60;;;15.80;99.90;;;16.34;60.84;99496.50;4903461;28;97409;-43
2023/10/31 04:45:27;;;;;;;1.10;0.40;;;16.00;99.90;;;16.38;58.81;99497.97;4898643;28;97442;-43
2023/10/31 04:47:54;;;;;;;1.43;0.60;;;16.10;99.90;;;16.44;62.35;99504.63;4888438;28;97698;-45
2023/10/31 04:50:19;;;;;;;0.60;0.50;;;16.20;99.90;;;16.44;59.07;99502.81;4890569;28;97377;-43
2023/10/31 04:52:45;;;;;;;0.67;0.40;;;16.20;99.90;;;16.54;59.99;99498.47;4892895;28;97603;-45
2023/10/31 04:55:11;;;;;;;0.50;0.40;;;16.40;99.90;;;16.64;61.39;99509.25;4893523;28;100387;-43
2023/10/31 04:57:36;;;;;;;1.00;0.70;;;16.50;99.90;;;16.63;58.45;99507.53;4898765;28;99694;-43
2023/10/31 05:00:05;;;;;;;0.87;0.50;;;16.60;99.90;;;16.63;59.89;99508.38;4897792;28;97467;-43
2023/10/31 05:02:31;;;;;;;0.70;0.50;;;16.50;99.90;;;16.66;61.36;99509.97;4891886;28;97451;-44
2023/10/31 05:04:57;;;;;;;1.70;0.63;;;16.50;99.90;;;16.59;60.48;99516.72;4888567;28;97845;-45
2023/10/31 05:07:24;;;;;;;1.07;0.70;;;16.50;99.90;;;16.71;62.36;99514.94;4880305;28;100142;-46
2023/10/31 05:09:49;;;;;;;1.30;0.70;;;16.60;99.90;;;16.72;59.64;99517.50;4891334;28;106985;-43
2023/10/31 05:12:15;;;;;;;3.40;0.60;;;16.60;99.90;;;16.60;58.27;99521.09;4892505;28;101928;-45
2023/10/31 05:14:41;;;;;;;2.77;1.00;;;16.50;99.90;;;16.58;60.73;99526.53;4892876;28;106386;-43
2023/10/31 05:17:07;;;;;;;3.30;0.90;;;16.40;99.90;;;16.52;59.40;99521.69;4884979;28;97212;-43
2023/10/31 05:19:32;;;;;;;0.43;0.43;;;16.40;99.90;;;16.57;62.36;99516.00;4889617;28;98515;-47
2023/10/31 05:21:58;;;;;;;1.23;0.70;;;16.40;99.90;;;16.56;58.76;99516.97;4888943;28;97438;-45
2023/10/31 05:24:24;;;;;;;1.20;0.63;;;16.50;99.90;;;16.59;61.19;99524.72;4889962;28;107437;-47
2023/10/31 05:26:50;;;;;;;2.57;1.20;;;16.50;99.90;;;16.71;62.52;99514.94;4888202;28;97233;-47
2023/10/31 05:29:16;;;;;;;1.87;0.77;;;16.60;99.90;;;16.61;60.16;99514.78;4885094;28;97690;-50
2023/10/31 05:31:43;;;;;;;1.53;0.90;;;16.50;99.90;;;16.58;58.49;99515.03;4890620;28;97536;-44
2023/10/31 05:34:09;;;;;;;1.10;0.73;;;16.50;99.90;;;16.40;57.26;99521.78;4886256;28;97212;-46
2023/10/31 05:36:35;;;;;;;1.13;0.80;;;16.30;99.90;;;16.53;62.46;99527.88;4878448;28;97515;-45
2023/10/31 05:39:00;;;;;;;1.00;0.87;;;16.30;99.90;;;16.48;57.17;99519.38;4884327;28;97010;-45
2023/10/31 05:41:26;;;;;;;1.80;0.93;;;16.40;99.90;;;16.54;58.70;99526.91;4882192;28;97472;-46
2023/10/31 05:43:52;;;;;;;0.97;0.70;;;16.50;99.90;;;16.52;60.79;99531.50;4885951;28;108758;-48
2023/10/31 05:46:18;;;;;;;0.90;0.70;;;16.40;99.90;;;16.43;56.74;99537.53;4881920;28;97818;-48
2023/10/31 05:48:46;;;;;;;1.27;0.60;;;16.40;99.90;;;16.47;61.55;99549.63;4886829;28;98120;-43
2023/10/31 05:51:19;;;;;;;1.47;0.87;;;16.30;99.90;;;16.46;60.33;99543.44;4903877;28;97594;-43
2023/10/31 05:53:47;;;;;;;2.40;0.83;;;16.30;99.90;;;16.49;58.79;99559.19;4889591;28;100409;-45
2023/10/31 05:56:15;;;;;;;2.13;0.97;;;16.30;99.90;;;16.40;60.18;99548.41;4884638;28;101263;-43
2023/10/31 05:58:42;;;;;;;0.93;0.77;;;16.20;99.90;;;16.33;60.92;99556.84;4889501;28;96869;-43
2023/10/31 06:01:08;;;;;;;1.20;1.00;;;16.10;99.90;;;16.34;61.89;99555.88;4897747;28;97459;-44
2023/10/31 06:03:34;;;;;;;0.80;0.80;;;16.20;99.90;;;16.39;59.03;99557.34;4887414;28;97553;-51
2023/10/31 06:06:00;;;;;;;1.10;1.00;;;16.30;99.90;;;16.43;60.19;99564.97;4890784;28;97251;-43
2023/10/31 06:08:28;;;;;;;0.93;0.77;;;16.30;99.90;;;16.36;59.75;99564.63;4883573;28;97627;-46
2023/10/31 06:10:56;;;;;;;0.93;0.60;;;16.30;99.90;;;16.42;59.20;99573.94;4888505;28;97857;-47
2023/10/31 06:13:22;;;;;;;0.60;0.60;;;16.30;99.90;;;16.32;57.83;99573.78;4884992;28;98388;-48
2023/10/31 06:15:48;;;;;;;1.50;0.90;;;16.20;99.90;;;16.34;58.98;99582.50;4888023;28;97104;-45
2023/10/31 06:18:13;;;;;;;1.27;1.13;;;16.20;99.90;;;16.38;61.02;99592.94;4902806;28;102352;-45
2023/10/31 06:20:39;;;;;;;0.77;0.67;;;16.20;99.90;;;16.43;60.89;99586.28;4894552;28;97112;-46
2023/10/31 06:23:05;;;;;;;0.83;0.70;;;16.30;99.90;;;16.46;56.92;99595.81;4889245;28;97614;-44
2023/10/31 06:25:31;;;;;;;2.43;1.07;;;16.40;99.90;;;16.52;61.27;99598.03;4894552;28;97230;-45
2023/10/31 06:27:57;;;;;;;1.43;0.90;;;16.40;99.90;;;16.48;62.30;99605.38;4889788;28;97147;-44
2023/10/31 06:30:24;;;;;;;1.20;1.10;;;16.40;99.90;;;16.45;61.50;99610.09;4892635;28;100989;-46
2023/10/31 06:32:54;;;;;;;1.10;1.00;;;16.40;99.90;;;16.47;58.71;99613.50;4892765;28;97163;-45
2023/10/31 06:35:19;;;;;;;1.33;1.00;;;16.40;99.90;;;16.35;60.46;99608.16;4885889;28;97270;-46
2023/10/31 06:37:45;;;;;;;1.77;1.10;;;16.30;99.90;;;16.30;58.53;99623.59;4890961;28;98734;-44
2023/10/31 06:40:12;;;;;;;1.13;1.03;;;16.20;99.90;;;16.44;62.48;99624.38;4896542;28;98812;-48
2023/10/31 06:42:37;;;;;;;1.00;0.90;;;16.40;99.90;;;16.29;58.16;99627.25;4891597;28;99192;-47
2023/10/31 06:45:04;;;;;;;1.27;1.07;;;16.30;99.90;;;16.22;58.94;99636.66;4890448;28;112287;-49
2023/10/31 06:47:30;;;;;;;1.90;1.27;;;16.10;99.90;;;16.20;61.50;99635.94;4890245;28;97412;-45
2023/10/31 06:49:56;;;;;;;1.93;1.23;;;16.00;99.90;;;16.27;60.80;99639.81;4893777;28;97270;-46
2023/10/31 06:52:22;;;;;;;1.00;0.90;;;16.10;99.90;;;16.30;61.33;99647.56;4889170;28;100813;-47
2023/10/31 06:54:49;;;;;;;2.43;1.20;;;16.20;99.90;;;16.31;61.06;99645.75;4886438;28;97743;-46
2023/10/31 06:57:16;;;;;;;0.97;0.80;;;16.10;99.90;;;16.17;57.76;99653.91;4893218;28;98170;-46
2023/10/31 06:59:41;;;;;;;1.33;1.23;;;16.00;99.90;;;16.14;61.02;99655.00;4894031;28;97088;-45
2023/10/31 07:02:08;;;;;;;1.40;1.20;;;15.90;99.90;;;15.99;58.88;99656.97;4893625;28;97186;-45
2023/10/31 07:04:34;;;;;;;2.20;1.63;;;15.80;99.90;;;16.11;61.73;99649.91;4890984;28;97536;-47
2023/10/31 07:07:00;;;;;;;1.27;1.10;;;15.90;99.90;;;15.98;57.87;99665.91;4887775;28;97333;-46
2023/10/31 07:09:27;;;;;;;1.20;1.10;;;15.80;99.90;;;15.85;57.88;99664.25;4889445;28;102828;-43
2023/10/31 07:11:53;;;;;;;2.00;1.27;;;15.70;99.90;;;15.67;59.51;99667.31;4889241;28;97528;-45
2023/10/31 07:14:19;;;;;;;2.90;1.47;;;15.50;99.90;;;15.80;59.67;99671.75;4887192;28;106816;-47
2023/10/31 07:16:45;;;;;;;1.27;1.03;;;15.60;99.90;;;15.95;64.09;99676.78;4889525;28;97424;-45
2023/10/31 07:19:11;;;;;;;1.53;1.10;;;15.70;99.90;;;15.90;63.53;99672.75;4887140;28;99158;-49
2023/10/31 07:21:37;;;;;;;3.80;1.47;;;15.60;99.90;;;16.03;63.32;99668.22;4886070;28;106463;-47
2023/10/31 07:24:03;;;;;;;2.00;1.40;;;15.90;99.90;;;16.06;61.90;99678.66;4890252;28;97457;-45
2023/10/31 07:26:29;;;;;;;3.30;1.80;;;15.90;99.90;;;16.26;62.96;99670.03;4885817;28;98736;-46
2023/10/31 07:28:54;;;;;;;1.53;1.40;;;16.10;99.90;;;16.31;62.51;99673.19;4889618;28;97540;-46
2023/10/31 07:31:20;;;;;;;3.03;1.80;;;16.30;99.90;;;16.41;62.63;99678.69;4883446;28;105878;-45
2023/10/31 07:33:46;;;;;;;2.80;1.70;;;16.30;99.90;;;16.43;61.64;99681.22;4890224;28;97169;-45
2023/10/31 07:36:13;;;;;;;3.30;1.43;;;16.40;99.90;;;16.38;61.03;99672.75;4888539;28;99357;-46
2023/10/31 07:38:38;;;;;;;2.47;2.00;;;16.20;99.90;;;16.44;62.49;99677.59;4880213;28;97245;-47
2023/10/31 07:41:04;;;;;;;2.63;1.73;;;16.20;99.90;;;16.29;59.79;99685.78;4883185;28;97624;-49
2023/10/31 07:43:30;;;;;;;1.13;0.83;;;16.10;99.90;;;16.26;62.45;99686.00;4891017;28;97462;-49
2023/10/31 07:45:56;;;;;;;2.17;1.53;;;16.10;99.90;;;16.28;60.56;99684.06;4883541;28;102165;-43
2023/10/31 07:48:21;;;;;;;2.20;1.50;;;16.10;99.90;;;16.33;62.82;99676.59;4891222;28;98831;-46
2023/10/31 07:50:47;;;;;;;2.37;1.50;;;16.10;99.90;;;16.32;59.69;99674.91;4895448;28;97281;-47
2023/10/31 07:53:13;;;;;;;1.87;1.40;;;16.20;99.90;;;16.31;61.94;99667.88;4885037;28;107903;-47
2023/10/31 07:55:39;;;;;;;2.00;1.37;;;16.20;99.90;;;16.34;58.83;99683.59;4888784;28;97329;-46
2023/10/31 07:58:04;;;;;;;5.90;1.57;;;16.20;99.90;;;16.48;62.03;99690.56;4884078;28;96999;-46
2023/10/31 08:00:30;;;;;;;1.50;1.40;;;16.40;99.90;;;16.52;62.13;99697.38;4887366;28;97717;-46
2023/10/31 08:02:56;;;;;;;3.03;1.63;;;16.40;99.90;;;16.53;61.42;99700.88;4885151;28;97158;-43
2023/10/31 08:05:22;;;;;;;1.20;1.10;;;16.50;99.90;;;16.51;60.14;99697.50;4884598;28;97211;-46
2023/10/31 08:07:48;;;;;;;1.40;1.10;;;16.40;99.90;;;16.53;61.25;99708.88;4888902;28;97495;-44
2023/10/31 08:10:14;;;;;;;1.70;1.10;;;16.40;99.90;;;16.37;60.96;99703.84;4888223;28;102443;-43
2023/10/31 08:12:40;;;;;;;1.90;1.20;;;16.30;99.90;;;16.38;57.23;99715.34;4883914;28;97596;-46
2023/10/31 08:15:06;;;;;;;2.93;1.20;;;16.30;99.90;;;16.24;61.79;99711.88;4882321;28;97030;-46
2023/10/31 08:17:32;;;;;;;1.63;1.30;;;16.00;99.90;;;16.21;61.63;99714.78;4892154;28;97256;-49
2023/10/31 08:19:57;;;;;;;2.03;1.17;;;16.00;99.90;;;16.21;60.42;99719.25;4885400;28;97740;-45
2023/10/31 08:22:23;;;;;;;1.57;1.17;;;16.00;99.90;;;16.31;62.49;99723.75;4887107;28;110015;-46
2023/10/31 08:24:49;;;;;;;2.53;1.40;;;16.10;99.90;;;16.33;61.72;99732.47;4888690;28;97367;-49
2023/10/31 08:27:15;;;;;;;1.50;0.97;;;16.20;99.90;;;16.44;61.82;99736.16;4887466;28;97671;-47
2023/10/31 08:29:41;;;;;;;3.03;1.27;;;16.30;99.90;;;16.49;59.82;99734.00;4887097;28;98857;-45
2023/10/31 08:32:07;;;;;;;4.63;1.60;;;16.50;99.90;;;16.35;58.15;99743.88;4884203;28;98446;-45
2023/10/31 08:34:33;;;;;;;2.10;0.80;;;16.20;99.90;;;16.47;61.44;99749.22;4884419;28;97531;-45
2023/10/31 08:37:00;;;;;;;1.53;1.03;;;16.30;99.90;;;16.56;60.83;99745.91;4887456;28;97405;-43
2023/10/31 08:39:26;;;;;;;2.20;1.40;;;16.50;99.90;;;16.52;60.39;99747.94;4890096;28;97565;-45
2023/10/31 08:41:57;;;;;;;2.63;1.30;;;16.40;99.90;;;16.54;59.09;99753.16;4883232;28;97503;-45
2023/10/31 08:44:23;;;;;;;1.73;1.27;;;16.40;99.90;;;16.55;58.42;99760.19;4889200;28;97542;-48
2023/10/31 08:46:49;;;;;;;1.20;0.97;;;16.50;99.90;;;16.47;57.08;99760.72;4887541;28;97581;-46
2023/10/31 08:49:16;;;;;;;1.83;1.20;;;16.40;99.90;;;16.42;56.98;99759.38;4893067;28;96950;-46
2023/10/31 08:51:42;;;;;;;1.93;1.33;;;16.40;99.90;;;16.16;59.75;99754.16;4879136;28;97367;-45
2023/10/31 08:54:09;;;;;;;2.47;0.90;;;16.00;99.90;;;16.28;60.61;99758.59;4868208;28;97463;-51
2023/10/31 08:56:35;;;;;;;1.97;1.23;;;16.20;99.90;;;16.32;60.91;99770.69;4868382;28;97037;-49
2023/10/31 08:59:01;;;;;;;1.37;0.90;;;16.20;99.90;;;16.41;60.20;99768.31;4870079;28;98978;-51
2023/10/31 09:01:30;;;;;;;1.67;1.10;;;16.40;99.90;;;16.42;58.63;99775.34;4869030;28;98515;-47
2023/10/31 09:03:58;;;;;;;1.17;0.97;;;16.40;99.90;;;16.44;59.19;99768.09;4866408;28;97424;-47
2023/10/31 09:06:24;;;;;;;1.20;0.97;;;16.40;99.90;;;16.51;58.36;99772.03;4863180;28;97326;-49
2023/10/31 09:08:50;;;;;;;2.20;1.20;;;16.40;99.90;;;16.57;59.53;99779.53;4865518;28;98657;-52
2023/10/31 09:11:16;;;;;;;1.47;1.07;;;16.50;99.90;;;16.57;59.37;99779.53;4870384;28;99654;-49
2023/10/31 09:13:42;;;;;;;1.10;0.80;;;16.40;99.90;;;16.53;57.80;99788.72;4860634;28;99759;-43
2023/10/31 09:16:08;;;;;;;1.73;1.30;;;16.40;99.90;;;16.48;61.62;99791.69;4863417;28;99706;-43
2023/10/31 09:18:34;;;;;;;2.30;1.40;;;16.30;99.90;;;16.58;58.82;99798.06;4866270;28;99140;-45
2023/10/31 09:21:00;;;;;;;1.00;0.77;;;16.40;99.90;;;16.54;59.62;99806.38;4868653;28;100889;-48
2023/10/31 09:23:26;;;;;;;3.13;1.60;;;16.40;99.90;;;16.53;60.53;99810.03;4859005;28;97811;-52
2023/10/31 09:25:52;;;;;;;4.17;1.60;;;16.40;99.90;;;16.61;60.47;99810.28;4864801;28;98732;-44
2023/10/31 09:28:18;;;;;;;2.13;1.20;;;16.50;99.90;;;16.65;58.39;99809.13;4866709;28;97467;-47
2023/10/31 09:30:44;;;;;;;2.60;1.00;;;16.60;99.90;;;16.72;60.64;99814.84;4868184;28;114013;-45
2023/10/31 09:33:09;;;;;;;3.33;1.00;;;16.60;99.90;;;16.75;57.69;99812.81;4867588;28;98567;-45
2023/10/31 09:35:35;;;;;;;1.30;1.03;;;16.70;99.90;;;16.76;58.37;99817.16;4859451;28;97421;-51
2023/10/31 09:38:01;;;;;;;1.77;1.20;;;16.70;99.90;;;16.80;60.03;99817.81;4867758;28;97927;-47
2023/10/31 09:40:27;;;;;;;1.40;0.80;;;16.70;99.90;;;16.87;60.09;99827.88;4866686;28;97557;-48
2023/10/31 09:42:52;;;;;;;1.40;1.10;;;16.80;99.90;;;16.83;56.12;99829.09;4866114;28;97347;-44
2023/10/31 09:45:18;;;;;;;1.30;1.07;;;16.80;99.90;;;16.85;57.56;99832.47;4868035;28;97576;-51
2023/10/31 09:47:44;;;;;;;1.23;1.00;;;16.80;99.90;;;16.93;58.57;99838.09;4869891;28;106145;-44
2023/10/31 09:50:11;;;;;;;1.33;0.80;;;16.80;99.90;;;16.90;57.32;99840.97;4867039;28;98678;-47
2023/10/31 09:52:37;;;;;;;2.33;1.20;;;16.90;99.90;;;16.91;58.29;99842.66;4869058;28;97078;-49
2023/10/31 09:55:05;;;;;;;1.93;0.77;;;16.80;99.90;;;16.78;57.14;99843.69;4869046;28;99033;-46
2023/10/31 09:57:31;;;;;;;2.13;1.23;;;16.70;99.90;;;16.68;56.99;99851.53;4869197;28;101059;-47
2023/10/31 09:59:57;;;;;;;1.00;0.80;;;16.60;99.90;;;16.64;57.09;99860.66;4869486;28;98705;-45
2023/10/31 10:02:23;;;;;;;1.57;1.10;;;16.50;99.90;;;16.71;60.16;99855.75;4867018;28;99978;-46
2023/10/31 10:04:50;;;;;;;1.13;0.90;;;16.60;99.90;;;16.68;56.42;99867.50;4865993;28;115382;-47
2023/10/31 10:07:17;;;;;;;1.90;0.90;;;16.60;99.90;;;16.79;60.49;99864.91;4869555;28;99639;-48
2023/10/31 10:09:46;;;;;;;2.17;0.77;;;16.70;99.90;;;16.91;59.64;99869.28;4866771;28;102046;-46
2023/10/31 10:12:16;;;;;;;1.43;0.93;;;16.80;99.90;;;17.06;60.13;99871.78;4866413;28;97506;-47